createdAt,value
2023-01-13T00:01:21.931Z,97409.56
2023-01-13T00:03:49.306Z,97409.09
2023-01-13T00:06:15.769Z,97410.31
2023-01-13T00:08:42.182Z,97408.28
2023-01-13T00:11:08.604Z,97402.94
2023-01-13T00:13:35.036Z,97419.00
2023-01-13T00:16:01.501Z,97418.34
2023-01-13T00:18:27.951Z,97422.88
2023-01-13T00:20:54.353Z,97430.72
2023-01-13T00:23:20.698Z,97428.66
2023-01-13T00:25:47.064Z,97428.66
2023-01-13T00:28:13.417Z,97431.53
2023-01-13T00:30:39.806Z,97432.19
2023-01-13T00:33:06.194Z,97437.38
2023-01-13T00:35:32.660Z,97414.19
2023-01-13T00:37:59.200Z,97412.97
2023-01-13T00:40:25.567Z,97417.50
2023-01-13T00:42:51.894Z,97413.34
2023-01-13T00:45:18.335Z,97409.66
2023-01-13T00:47:44.788Z,97402.19
2023-01-13T00:50:11.242Z,97412.72
2023-01-13T00:52:37.697Z,97410.03
2023-01-13T00:55:04.070Z,97410.22
2023-01-13T00:57:30.469Z,97396.47
2023-01-13T00:59:56.861Z,97378.00
2023-01-13T01:02:23.335Z,97363.59
2023-01-13T01:04:49.838Z,97363.84
2023-01-13T01:07:16.240Z,97366.34
2023-01-13T01:09:42.604Z,97359.16
2023-01-13T01:12:09.015Z,97361.84
2023-01-13T01:14:35.534Z,97368.22
2023-01-13T01:17:01.880Z,97379.94
2023-01-13T01:19:28.265Z,97370.59
2023-01-13T01:21:54.593Z,97383.34
2023-01-13T01:24:20.952Z,97377.34
2023-01-13T01:26:47.333Z,97374.50
2023-01-13T01:29:16.193Z,97376.34
2023-01-13T01:31:42.695Z,97387.41
2023-01-13T01:34:09.096Z,97388.06
2023-01-13T01:36:35.490Z,97380.97
2023-01-13T01:39:01.836Z,97369.69
2023-01-13T01:41:28.187Z,97365.53
2023-01-13T01:43:54.723Z,97367.00
2023-01-13T01:46:21.188Z,97371.16
2023-01-13T01:48:47.783Z,97369.31
2023-01-13T01:51:14.164Z,97371.53
2023-01-13T01:53:40.485Z,97378.19
2023-01-13T01:56:06.886Z,97359.50
2023-01-13T01:58:33.198Z,97342.91
2023-01-13T02:00:59.658Z,97363.47
2023-01-13T02:03:26.098Z,97371.78
2023-01-13T02:05:52.449Z,97352.66
2023-01-13T02:08:18.792Z,97351.19
2023-01-13T02:10:45.156Z,97362.47
2023-01-13T02:13:11.485Z,97356.59
2023-01-13T02:15:37.820Z,97357.22
2023-01-13T02:18:04.190Z,97359.88
2023-01-13T02:20:30.542Z,97360.06
2023-01-13T02:22:56.872Z,97360.47
2023-01-13T02:25:23.202Z,97358.97
2023-01-13T02:27:49.660Z,97351.88
2023-01-13T02:30:16.171Z,97351.78
2023-01-13T02:32:43.666Z,97344.59
2023-01-13T02:35:10.017Z,97347.38
2023-01-13T02:37:36.352Z,97338.16
2023-01-13T02:40:02.904Z,97339.41
2023-01-13T02:42:29.323Z,97337.41
2023-01-13T02:44:55.745Z,97327.31
2023-01-13T02:47:22.122Z,97324.28
2023-01-13T02:49:48.497Z,97302.03
2023-01-13T02:52:14.834Z,97293.38
2023-01-13T02:54:41.261Z,97299.53
2023-01-13T02:57:07.695Z,97291.50
2023-01-13T02:59:34.093Z,97294.00
2023-01-13T03:02:00.633Z,97300.19
2023-01-13T03:04:27.092Z,97324.09
2023-01-13T03:06:53.476Z,97326.97
2023-01-13T03:09:20.077Z,97329.28
2023-01-13T03:11:46.467Z,97315.50
2023-01-13T03:14:12.848Z,97318.00
2023-01-13T03:16:39.378Z,97320.88
2023-01-13T03:19:05.760Z,97319.47
2023-01-13T03:21:32.158Z,97317.44
2023-01-13T03:23:58.549Z,97325.84
2023-01-13T03:26:24.933Z,97325.84
2023-01-13T03:28:51.344Z,97330.81
2023-01-13T03:31:17.732Z,97328.81
2023-01-13T03:33:44.111Z,97344.38
2023-01-13T03:36:10.862Z,97327.75
2023-01-13T03:38:37.412Z,97317.97
2023-01-13T03:41:03.835Z,97313.69
2023-01-13T03:43:30.273Z,97309.63
2023-01-13T03:45:56.727Z,97310.28
2023-01-13T03:48:23.156Z,97313.41
2023-01-13T03:50:49.570Z,97328.28
2023-01-13T03:53:15.926Z,97328.09
2023-01-13T03:55:42.328Z,97331.34
2023-01-13T03:58:08.723Z,97337.47
2023-01-13T04:00:35.134Z,97332.63
2023-01-13T04:03:01.568Z,97337.41
2023-01-13T04:05:28.058Z,97324.97
2023-01-13T04:07:54.596Z,97333.25
2023-01-13T04:10:21.222Z,97343.97
2023-01-13T04:12:47.593Z,97329.56
2023-01-13T04:15:14.031Z,97322.16
2023-01-13T04:17:40.465Z,97304.69
2023-01-13T04:20:06.871Z,97312.91
2023-01-13T04:22:33.262Z,97315.88
2023-01-13T04:24:59.768Z,97321.47
2023-01-13T04:27:26.167Z,97323.59
2023-01-13T04:29:52.590Z,97344.00
2023-01-13T04:32:18.962Z,97357.88
2023-01-13T04:34:45.359Z,97361.22
2023-01-13T04:37:13.339Z,97359.97
2023-01-13T04:39:39.815Z,97344.25
2023-01-13T04:42:06.175Z,97342.69
2023-01-13T04:44:32.537Z,97334.09
2023-01-13T04:46:58.900Z,97329.56
2023-01-13T04:49:25.259Z,97335.09
2023-01-13T04:51:51.850Z,97338.38
2023-01-13T04:54:19.672Z,97331.16
2023-01-13T04:56:46.077Z,97345.16
2023-01-13T04:59:12.458Z,97342.69
2023-01-13T05:01:38.889Z,97335.31
2023-01-13T05:04:05.317Z,97328.03
2023-01-13T05:06:31.702Z,97341.34
2023-01-13T05:08:58.235Z,97359.31
2023-01-13T05:11:24.605Z,97355.63
2023-01-13T05:13:50.958Z,97356.06
2023-01-13T05:16:17.338Z,97360.41
2023-01-13T05:18:43.766Z,97358.84
2023-01-13T05:21:10.129Z,97357.81
2023-01-13T05:23:36.483Z,97363.00
2023-01-13T05:26:02.830Z,97359.66
2023-01-13T05:28:29.294Z,97356.78
2023-01-13T05:30:55.751Z,97355.16
2023-01-13T05:33:22.133Z,97353.28
2023-01-13T05:35:48.527Z,97348.56
2023-01-13T05:38:16.516Z,97353.38
2023-01-13T05:40:43.009Z,97354.84
2023-01-13T05:43:09.358Z,97340.03
2023-01-13T05:45:35.821Z,97354.47
2023-01-13T05:48:02.234Z,97356.50
2023-01-13T05:50:28.566Z,97356.97
2023-01-13T05:52:55.104Z,97362.69
2023-01-13T05:55:21.466Z,97366.59
2023-01-13T05:57:54.107Z,97381.66
2023-01-13T06:00:26.483Z,97378.88
2023-01-13T06:02:52.929Z,97375.44
2023-01-13T06:05:19.283Z,97378.78
2023-01-13T06:07:45.678Z,97381.25
2023-01-13T06:10:12.062Z,97369.06
2023-01-13T06:12:38.433Z,97371.94
2023-01-13T06:15:04.814Z,97364.09
2023-01-13T06:17:31.217Z,97372.13
2023-01-13T06:19:57.588Z,97369.19
2023-01-13T06:22:23.962Z,97364.19
2023-01-13T06:24:50.499Z,97359.66
2023-01-13T06:27:16.888Z,97358.22
2023-01-13T06:29:43.265Z,97350.81
2023-01-13T06:32:09.604Z,97343.78
2023-01-13T06:34:35.996Z,97356.72
2023-01-13T06:37:02.338Z,97339.19
2023-01-13T06:39:28.781Z,97346.75
2023-01-13T06:41:55.154Z,97344.25
2023-01-13T06:44:21.588Z,97334.59
2023-01-13T06:46:48.082Z,97338.28
2023-01-13T06:49:14.534Z,97341.72
2023-01-13T06:51:41.036Z,97343.34
2023-01-13T06:54:07.409Z,97344.00
2023-01-13T06:56:33.749Z,97345.84
2023-01-13T06:59:00.140Z,97353.25
2023-01-13T07:01:28.939Z,97363.13
2023-01-13T07:03:55.426Z,97368.31
2023-01-13T07:06:21.824Z,97377.16
2023-01-13T07:08:48.181Z,97387.06
2023-01-13T07:11:14.592Z,97399.41
2023-01-13T07:13:40.948Z,97399.59
2023-01-13T07:16:07.427Z,97406.69
2023-01-13T07:18:33.799Z,97408.38
2023-01-13T07:21:00.220Z,97405.88
2023-01-13T07:23:26.636Z,97418.00
2023-01-13T07:25:55.778Z,97415.41
2023-01-13T07:28:22.172Z,97426.84
2023-01-13T07:30:48.547Z,97426.66
2023-01-13T07:33:15.002Z,97425.19
2023-01-13T07:35:41.378Z,97435.91
2023-01-13T07:38:07.734Z,97431.75
2023-01-13T07:40:34.122Z,97425.56
2023-01-13T07:43:00.520Z,97426.19
2023-01-13T07:45:26.900Z,97420.53
2023-01-13T07:47:53.256Z,97427.31
2023-01-13T07:50:19.607Z,97425.81
2023-01-13T07:52:45.934Z,97427.59
2023-01-13T07:55:12.375Z,97435.91
2023-01-13T07:57:38.812Z,97431.19
2023-01-13T08:00:05.210Z,97429.34
2023-01-13T08:02:33.343Z,97440.50
2023-01-13T08:05:05.536Z,97451.88
2023-01-13T08:07:32.010Z,97454.16
2023-01-13T08:09:58.355Z,97456.66
2023-01-13T08:12:24.817Z,97459.97
2023-01-13T08:14:51.188Z,97465.22
2023-01-13T08:17:19.756Z,97460.19
2023-01-13T08:19:46.873Z,97464.72
2023-01-13T08:22:14.465Z,97469.63
2023-01-13T08:24:40.897Z,97476.41
2023-01-13T08:27:07.329Z,97483.19
2023-01-13T08:29:33.853Z,97487.06
2023-01-13T08:32:06.336Z,97472.56
2023-01-13T08:34:32.841Z,97468.94
2023-01-13T08:36:59.221Z,97469.66
2023-01-13T08:39:25.615Z,97473.81
2023-01-13T08:41:56.254Z,97474.25
2023-01-13T08:44:22.716Z,97470.94
2023-01-13T08:46:49.260Z,97464.31
2023-01-13T08:49:18.364Z,97467.88
2023-01-13T08:51:44.780Z,97471.03
2023-01-13T08:54:11.240Z,97477.22
2023-01-13T08:56:39.451Z,97492.69
2023-01-13T08:59:19.027Z,97493.97
2023-01-13T09:04:31.000Z,97489.44
2023-01-13T09:09:32.719Z,97505.22
2023-01-13T09:12:02.166Z,97519.28
2023-01-13T09:14:28.559Z,97523.06
2023-01-13T09:16:55.230Z,97520.84
2023-01-13T09:19:21.677Z,97524.38
2023-01-13T09:21:48.118Z,97533.22
2023-01-13T09:24:18.401Z,97533.50
2023-01-13T09:26:44.876Z,97548.69
2023-01-13T09:29:12.681Z,97565.41
2023-01-13T09:31:39.051Z,97546.09
2023-01-13T09:34:08.607Z,97548.50
2023-01-13T09:36:35.041Z,97559.69
2023-01-13T09:39:01.451Z,97517.47
2023-01-13T09:41:27.882Z,97511.16
2023-01-13T09:43:54.287Z,97525.28
2023-01-13T09:46:20.726Z,97538.31
2023-01-13T09:48:49.892Z,97508.75
2023-01-13T09:51:19.095Z,97509.53
2023-01-13T09:53:45.553Z,97512.59
2023-01-13T09:56:11.969Z,97513.50
2023-01-13T09:58:38.394Z,97497.22
2023-01-13T10:01:04.866Z,97504.69
2023-01-13T10:03:31.393Z,97507.00
2023-01-13T10:06:00.092Z,97504.34
2023-01-13T10:08:28.648Z,97519.13
2023-01-13T10:10:57.931Z,97509.56
2023-01-13T10:13:24.307Z,97499.06
2023-01-13T10:15:50.753Z,97501.34
2023-01-13T10:18:20.181Z,97484.69
2023-01-13T10:20:46.686Z,97484.31
2023-01-13T10:23:13.124Z,97465.31
2023-01-13T10:25:39.537Z,97496.38
2023-01-13T10:28:06.140Z,97517.34
2023-01-13T10:30:32.598Z,97549.66
2023-01-13T10:32:59.064Z,97548.31
2023-01-13T10:35:25.661Z,97547.13
2023-01-13T10:37:52.030Z,97540.28
2023-01-13T10:40:18.548Z,97527.78
2023-01-13T10:42:45.069Z,97514.34
2023-01-13T10:45:11.518Z,97503.09
2023-01-13T10:47:40.128Z,97499.25
2023-01-13T10:50:09.408Z,97493.06
2023-01-13T10:52:36.082Z,97488.53
2023-01-13T10:55:02.545Z,97475.28
2023-01-13T10:57:28.992Z,97472.69
2023-01-13T10:59:56.515Z,97460.34
2023-01-13T11:02:26.225Z,97461.41
2023-01-13T11:04:53.299Z,97478.22
2023-01-13T11:07:19.790Z,97474.94
2023-01-13T11:09:46.200Z,97479.34
2023-01-13T11:12:12.703Z,97472.63
2023-01-13T11:14:39.187Z,97485.88
2023-01-13T11:17:05.584Z,97482.59
2023-01-13T11:19:31.946Z,97485.47
2023-01-13T11:21:59.363Z,97475.00
2023-01-13T11:24:26.006Z,97478.28
2023-01-13T11:26:52.461Z,97486.56
2023-01-13T11:29:18.829Z,97482.09
2023-01-13T11:31:45.271Z,97467.22
2023-01-13T11:34:11.689Z,97473.84
2023-01-13T11:36:38.088Z,97483.97
2023-01-13T11:39:04.494Z,97489.91
2023-01-13T11:41:30.922Z,97472.56
2023-01-13T11:43:57.308Z,97478.59
2023-01-13T11:46:23.751Z,97475.94
2023-01-13T11:48:50.126Z,97481.19
2023-01-13T11:51:16.574Z,97479.38
2023-01-13T11:53:42.979Z,97480.50
2023-01-13T11:56:09.410Z,97474.59
2023-01-13T11:58:45.650Z,97480.84
2023-01-13T12:01:16.553Z,97478.69
2023-01-13T12:03:44.071Z,97483.53
2023-01-13T12:06:10.493Z,97476.53
2023-01-13T12:08:45.811Z,97467.28
2023-01-13T12:11:12.234Z,97458.88
2023-01-13T12:13:38.604Z,97451.47
2023-01-13T12:16:06.439Z,97445.66
2023-01-13T12:18:32.911Z,97433.22
2023-01-13T12:20:59.313Z,97426.03
2023-01-13T12:23:25.829Z,97429.16
2023-01-13T12:25:52.268Z,97452.53
2023-01-13T12:28:23.127Z,97483.66
2023-01-13T12:30:49.538Z,97495.22
2023-01-13T12:33:18.653Z,97487.34
2023-01-13T12:35:46.293Z,97482.19
2023-01-13T12:38:12.679Z,97483.72
2023-01-13T12:40:39.089Z,97482.25
2023-01-13T12:43:05.543Z,97483.44
2023-01-13T12:45:31.972Z,97491.56
2023-01-13T12:47:58.444Z,97503.91
2023-01-13T12:50:24.916Z,97506.78
2023-01-13T12:52:51.339Z,97494.38
2023-01-13T12:55:17.872Z,97480.25
2023-01-13T12:57:44.358Z,97501.59
2023-01-13T13:00:10.839Z,97498.56
2023-01-13T13:02:37.300Z,97486.28
2023-01-13T13:05:10.976Z,97485.75
2023-01-13T13:07:37.410Z,97476.03
2023-01-13T13:10:03.879Z,97486.06
2023-01-13T13:12:30.259Z,97480.78
2023-01-13T13:14:56.774Z,97479.63
2023-01-13T13:17:23.236Z,97480.63
2023-01-13T13:19:51.821Z,97469.72
2023-01-13T13:22:18.235Z,97472.84
2023-01-13T13:24:44.733Z,97481.84
2023-01-13T13:27:11.162Z,97480.16
2023-01-13T13:29:37.617Z,97488.44
2023-01-13T13:32:04.043Z,97492.84
2023-01-13T13:34:30.506Z,97502.56
2023-01-13T13:36:56.910Z,97494.66
2023-01-13T13:39:23.400Z,97491.19
2023-01-13T13:41:49.876Z,97498.84
2023-01-13T13:44:16.260Z,97511.63
2023-01-13T13:46:42.643Z,97495.44
2023-01-13T13:49:09.063Z,97496.91
2023-01-13T13:51:35.506Z,97505.59
2023-01-13T13:54:01.882Z,97515.66
2023-01-13T13:56:28.296Z,97510.75
2023-01-13T13:58:54.799Z,97507.50
2023-01-13T14:01:21.293Z,97515.16
2023-01-13T14:03:47.727Z,97517.13
2023-01-13T14:06:14.146Z,97528.94
2023-01-13T14:08:40.439Z,97533.53
2023-01-13T14:11:06.929Z,97535.81
2023-01-13T14:13:33.346Z,97538.75
2023-01-13T14:15:59.745Z,97544.56
2023-01-13T14:18:26.166Z,97546.59
2023-01-13T14:20:52.624Z,97551.91
2023-01-13T14:23:18.975Z,97558.06
2023-01-13T14:25:45.358Z,97549.09
2023-01-13T14:28:11.740Z,97556.28
2023-01-13T14:30:38.077Z,97549.31
2023-01-13T14:33:04.413Z,97559.19
2023-01-13T14:35:32.447Z,97560.97
2023-01-13T14:37:58.787Z,97553.19
2023-01-13T14:40:25.230Z,97559.31
2023-01-13T14:42:51.637Z,97547.81
2023-01-13T14:45:17.977Z,97564.41
2023-01-13T14:47:44.318Z,97558.94
2023-01-13T14:50:11.704Z,97557.56
2023-01-13T14:52:38.138Z,97556.41
2023-01-13T14:55:04.467Z,97559.66
2023-01-13T14:57:30.864Z,97555.16
2023-01-13T14:59:57.229Z,97544.63
2023-01-13T15:02:23.689Z,97552.31
2023-01-13T15:04:50.128Z,97563.28
2023-01-13T15:07:16.497Z,97562.06
2023-01-13T15:09:42.927Z,97558.16
2023-01-13T15:12:09.369Z,97564.16
2023-01-13T15:14:38.756Z,97556.22
2023-01-13T15:17:07.912Z,97542.84
2023-01-13T15:19:34.326Z,97536.44
2023-01-13T15:22:00.692Z,97535.03
2023-01-13T15:24:27.122Z,97551.94
2023-01-13T15:26:53.566Z,97544.94
2023-01-13T15:29:24.364Z,97537.06
2023-01-13T15:31:50.871Z,97532.75
2023-01-13T15:34:17.258Z,97534.19
2023-01-13T15:36:43.597Z,97539.38
2023-01-13T15:39:10.571Z,97554.28
2023-01-13T15:41:36.970Z,97559.66
2023-01-13T15:44:04.684Z,97572.09
2023-01-13T15:46:34.123Z,97570.91
2023-01-13T15:49:08.055Z,97585.72
2023-01-13T15:51:34.482Z,97590.91
2023-01-13T15:54:00.943Z,97601.41
2023-01-13T15:56:27.348Z,97607.25
2023-01-13T15:58:54.124Z,97620.03
2023-01-13T16:01:20.672Z,97621.28
2023-01-13T16:03:48.158Z,97626.88
2023-01-13T16:06:14.556Z,97633.25
2023-01-13T16:08:41.998Z,97643.56
2023-01-13T16:11:12.492Z,97639.44
2023-01-13T16:13:38.923Z,97639.78
2023-01-13T16:16:10.237Z,97639.78
2023-01-13T16:18:36.784Z,97668.81
2023-01-13T16:21:04.264Z,97669.28
2023-01-13T16:23:30.680Z,97678.63
2023-01-13T16:25:57.181Z,97685.03
2023-01-13T16:28:26.074Z,97679.25
2023-01-13T16:30:56.936Z,97682.03
2023-01-13T16:33:23.470Z,97681.25
2023-01-13T16:36:10.543Z,97678.03
2023-01-13T16:38:42.919Z,97684.69
2023-01-13T16:41:09.412Z,97683.47
2023-01-13T16:43:37.283Z,97679.31
2023-01-13T16:46:03.864Z,97682.25
2023-01-13T16:48:32.525Z,97686.81
2023-01-13T16:50:58.883Z,97685.03
2023-01-13T16:53:25.512Z,97696.78
2023-01-13T16:55:51.927Z,97674.47
2023-01-13T16:58:28.729Z,97674.06
2023-01-13T17:00:55.236Z,97688.03
2023-01-13T17:03:21.925Z,97691.22
2023-01-13T17:05:48.344Z,97684.84
2023-01-13T17:08:14.784Z,97692.47
2023-01-13T17:10:48.598Z,97707.63
2023-01-13T17:13:21.637Z,97705.00
2023-01-13T17:15:51.377Z,97714.34
2023-01-13T17:18:18.141Z,97708.78
2023-01-13T17:20:55.165Z,97701.34
2023-01-13T17:23:31.386Z,97711.69
2023-01-13T17:25:57.766Z,97712.16
2023-01-13T17:28:24.239Z,97725.72
2023-01-13T17:30:50.659Z,97729.94
2023-01-13T17:33:17.189Z,97761.16
2023-01-13T17:35:43.644Z,97744.50
2023-01-13T17:38:12.879Z,97758.38
2023-01-13T17:40:39.277Z,97775.56
2023-01-13T17:43:05.615Z,97774.38
2023-01-13T17:45:32.057Z,97799.56
2023-01-13T17:47:58.463Z,97785.50
2023-01-13T17:50:24.870Z,97787.88
2023-01-13T17:52:51.344Z,97800.38
2023-01-13T17:55:17.709Z,97805.66
2023-01-13T17:57:44.096Z,97802.41
2023-01-13T18:00:10.536Z,97817.47
2023-01-13T18:02:37.120Z,97821.34
2023-01-13T18:05:03.569Z,97806.47
2023-01-13T18:07:30.021Z,97816.41
2023-01-13T18:09:56.434Z,97815.47
2023-01-13T18:12:22.793Z,97825.44
2023-01-13T18:14:49.194Z,97821.00
2023-01-13T18:17:18.696Z,97822.34
2023-01-13T18:19:55.479Z,97828.69
2023-01-13T18:22:25.003Z,97836.88
2023-01-13T18:24:51.377Z,97821.75
2023-01-13T18:27:17.797Z,97821.28
2023-01-13T18:29:44.159Z,97829.28
2023-01-13T18:32:10.624Z,97834.56
2023-01-13T18:34:37.014Z,97842.06
2023-01-13T18:37:03.503Z,97858.88
2023-01-13T18:39:31.155Z,97850.19
2023-01-13T18:41:57.535Z,97836.47
2023-01-13T18:44:24.116Z,97858.72
2023-01-13T18:46:50.552Z,97851.41
2023-01-13T18:49:16.947Z,97855.31
2023-01-13T18:51:43.395Z,97871.88
2023-01-13T18:54:09.763Z,97861.78
2023-01-13T18:56:36.100Z,97860.00
2023-01-13T18:59:02.521Z,97856.94
2023-01-13T19:01:29.027Z,97845.66
2023-01-13T19:03:57.765Z,97856.00
2023-01-13T19:06:24.208Z,97854.44
2023-01-13T19:08:50.605Z,97850.09
2023-01-13T19:11:16.958Z,97847.03
2023-01-13T19:13:43.331Z,97838.78
2023-01-13T19:16:09.756Z,97853.03
2023-01-13T19:18:36.124Z,97855.19
2023-01-13T19:21:02.574Z,97873.53
2023-01-13T19:23:28.923Z,97868.25
2023-01-13T19:25:55.283Z,97864.25
2023-01-13T19:28:21.699Z,97857.22
2023-01-13T19:30:51.959Z,97867.88
2023-01-13T19:33:18.356Z,97871.94
2023-01-13T19:35:44.773Z,97872.47
2023-01-13T19:38:11.119Z,97872.53
2023-01-13T19:40:37.528Z,97861.53
2023-01-13T19:43:03.909Z,97855.97
2023-01-13T19:45:30.292Z,97858.66
2023-01-13T19:47:56.728Z,97863.84
2023-01-13T19:50:23.157Z,97874.22
2023-01-13T19:52:49.548Z,97898.28
2023-01-13T19:55:15.947Z,97884.94
2023-01-13T19:57:42.265Z,97889.31
2023-01-13T20:00:08.688Z,97883.72
2023-01-13T20:02:35.110Z,97884.06
2023-01-13T20:05:01.541Z,97892.88
2023-01-13T20:07:27.878Z,97905.22
2023-01-13T20:09:55.317Z,97907.16
2023-01-13T20:12:22.914Z,97927.91
2023-01-13T20:14:49.865Z,97923.56
2023-01-13T20:17:17.637Z,97927.34
2023-01-13T20:19:44.088Z,97935.84
2023-01-13T20:22:10.522Z,97934.09
2023-01-13T20:24:36.918Z,97937.25
2023-01-13T20:27:03.409Z,97938.19
2023-01-13T20:29:29.788Z,97941.66
2023-01-13T20:31:56.217Z,97936.88
2023-01-13T20:34:22.748Z,97940.81
2023-01-13T20:36:49.125Z,97928.53
2023-01-13T20:39:15.574Z,97928.91
2023-01-13T20:41:45.061Z,97925.94
2023-01-13T20:44:11.431Z,97930.84
2023-01-13T20:46:37.827Z,97932.97
2023-01-13T20:49:04.242Z,97943.38
2023-01-13T20:51:30.666Z,97950.16
2023-01-13T20:53:57.117Z,97937.38
2023-01-13T20:56:23.562Z,97939.59
2023-01-13T20:58:50.053Z,97935.63
2023-01-13T21:01:16.507Z,97932.28
2023-01-13T21:03:43.132Z,97918.84
2023-01-13T21:06:09.719Z,97926.81
2023-01-13T21:08:36.183Z,97919.41
2023-01-13T21:11:04.268Z,97922.28
2023-01-13T21:13:30.759Z,97924.41
2023-01-13T21:15:57.170Z,97925.91
2023-01-13T21:18:25.734Z,97925.91
2023-01-13T21:20:52.065Z,97927.00
2023-01-13T21:23:18.462Z,97917.91
2023-01-13T21:25:44.836Z,97916.63
2023-01-13T21:28:11.471Z,97918.38
2023-01-13T21:30:37.899Z,97909.09
2023-01-13T21:33:06.819Z,97916.25
2023-01-13T21:35:34.596Z,97911.59
2023-01-13T21:38:03.924Z,97907.00
2023-01-13T21:40:30.350Z,97900.41
2023-01-13T21:42:56.746Z,97905.13
2023-01-13T21:45:24.655Z,97909.47
2023-01-13T21:47:51.031Z,97912.72
2023-01-13T21:50:17.402Z,97915.22
2023-01-13T21:52:43.853Z,97923.75
2023-01-13T21:55:10.206Z,97921.97
2023-01-13T21:57:38.742Z,97911.53
2023-01-13T22:00:05.124Z,97917.09
2023-01-13T22:02:38.018Z,97924.31
2023-01-13T22:05:04.511Z,97918.66
2023-01-13T22:07:33.254Z,97911.25
2023-01-13T22:09:59.625Z,97926.47
2023-01-13T22:12:26.105Z,97938.84
2023-01-13T22:14:52.495Z,97942.28
2023-01-13T22:17:18.930Z,97947.31
2023-01-13T22:19:46.784Z,97957.38
2023-01-13T22:22:14.144Z,97953.59
2023-01-13T22:24:40.627Z,97953.31
2023-01-13T22:27:07.028Z,97959.59
2023-01-13T22:29:33.410Z,97957.34
2023-01-13T22:31:59.880Z,97957.28
2023-01-13T22:34:26.259Z,97953.66
2023-01-13T22:36:52.641Z,97957.13
2023-01-13T22:39:19.015Z,97957.38
2023-01-13T22:41:45.395Z,97949.69
2023-01-13T22:44:11.780Z,97941.94
2023-01-13T22:46:40.477Z,97925.81
2023-01-13T22:49:06.868Z,97916.44
2023-01-13T22:51:34.261Z,97919.50
2023-01-13T22:54:00.674Z,97928.66
2023-01-13T22:56:27.238Z,97927.84
2023-01-13T22:58:54.893Z,97921.28
2023-01-13T23:01:21.354Z,97909.19
2023-01-13T23:03:47.932Z,97914.59
2023-01-13T23:06:14.527Z,97911.78
2023-01-13T23:08:40.974Z,97905.88
2023-01-13T23:11:07.372Z,97900.31
2023-01-13T23:13:33.765Z,97891.41
2023-01-13T23:16:00.118Z,97894.22
2023-01-13T23:18:27.913Z,97898.53
2023-01-13T23:20:54.346Z,97909.28
2023-01-13T23:23:20.684Z,97911.53
2023-01-13T23:25:47.054Z,97913.53
2023-01-13T23:28:13.520Z,97912.63
2023-01-13T23:30:39.900Z,97913.91
2023-01-13T23:33:06.386Z,97907.34
2023-01-13T23:35:33.838Z,97907.16
2023-01-13T23:38:00.289Z,97899.47
2023-01-13T23:40:26.705Z,97890.56
2023-01-13T23:42:53.090Z,97894.94
2023-01-13T23:45:19.482Z,97881.69
2023-01-13T23:47:45.861Z,97881.50
2023-01-13T23:50:12.256Z,97882.50
2023-01-13T23:52:38.672Z,97890.75
2023-01-13T23:55:05.086Z,97881.97
2023-01-13T23:57:31.460Z,97872.41
2023-01-13T23:59:57.850Z,97871.78
